createdAt,value
2022-11-16T00:01:52.396Z,10.15
2022-11-16T00:04:24.246Z,8.75
2022-11-16T00:06:56.171Z,10.18
2022-11-16T00:09:29.811Z,11.00
2022-11-16T00:12:03.824Z,8.27
2022-11-16T00:14:36.475Z,8.80
2022-11-16T00:17:08.265Z,11.13
2022-11-16T00:19:40.137Z,8.25
2022-11-16T00:22:11.988Z,9.60
2022-11-16T00:24:45.193Z,12.57
2022-11-16T00:27:16.987Z,7.93
2022-11-16T00:29:48.790Z,8.02
2022-11-16T00:32:20.575Z,9.35
2022-11-16T00:34:52.360Z,9.43
2022-11-16T00:37:24.172Z,9.45
2022-11-16T00:39:57.293Z,12.70
2022-11-16T00:42:29.043Z,8.82
2022-11-16T00:45:00.834Z,9.23
2022-11-16T00:47:32.590Z,9.10
2022-11-16T00:50:05.404Z,8.27
2022-11-16T00:52:37.196Z,9.52
2022-11-16T00:55:10.403Z,8.85
2022-11-16T00:57:42.232Z,9.05
2022-11-16T01:00:15.039Z,8.85
2022-11-16T01:02:46.855Z,8.32
2022-11-16T01:05:18.836Z,9.02
2022-11-16T01:07:51.275Z,11.23
2022-11-16T01:10:26.775Z,10.10
2022-11-16T01:12:59.034Z,8.98
2022-11-16T01:15:30.823Z,9.90
2022-11-16T01:18:02.601Z,9.25
2022-11-16T01:20:34.381Z,9.38
2022-11-16T01:23:06.209Z,8.38
2022-11-16T01:25:39.340Z,8.82
2022-11-16T01:28:11.133Z,7.43
2022-11-16T01:30:48.146Z,6.93
2022-11-16T01:33:19.960Z,10.00
2022-11-16T01:35:51.802Z,9.68
2022-11-16T01:38:27.223Z,7.90
2022-11-16T01:41:02.774Z,8.80
2022-11-16T01:43:50.926Z,7.13
2022-11-16T01:46:22.946Z,8.57
2022-11-16T01:49:00.527Z,10.95
2022-11-16T01:51:33.491Z,10.57
2022-11-16T01:54:09.817Z,9.10
2022-11-16T01:56:45.212Z,7.88
2022-11-16T01:59:17.836Z,9.85
2022-11-16T02:01:49.634Z,9.55
2022-11-16T02:04:21.489Z,10.80
2022-11-16T02:07:01.719Z,9.30
2022-11-16T02:09:54.523Z,9.10
2022-11-16T02:12:45.308Z,13.48
2022-11-16T02:15:24.210Z,9.90
2022-11-16T02:18:07.381Z,10.75
2022-11-16T02:21:16.919Z,14.18
2022-11-16T02:24:07.421Z,12.93
2022-11-16T02:27:12.064Z,11.73
2022-11-16T02:29:50.036Z,13.55
2022-11-16T02:32:28.605Z,13.65
2022-11-16T02:35:06.154Z,11.93
2022-11-16T02:37:43.786Z,13.75
2022-11-16T02:40:17.159Z,9.70
2022-11-16T02:45:27.141Z,11.80
2022-11-16T02:48:04.588Z,13.15
2022-11-16T02:50:38.303Z,13.10
2022-11-16T02:53:10.256Z,12.30
2022-11-16T02:55:42.196Z,9.80
2022-11-16T02:58:17.942Z,12.15
2022-11-16T03:00:57.206Z,11.95
2022-11-16T03:03:35.118Z,11.18
2022-11-16T03:06:13.736Z,11.38
2022-11-16T03:08:52.203Z,10.75
2022-11-16T03:11:42.440Z,10.88
2022-11-16T03:14:17.526Z,12.50
2022-11-16T03:16:53.585Z,10.70
2022-11-16T03:19:32.728Z,11.82
2022-11-16T03:22:11.291Z,8.07
2022-11-16T03:24:43.639Z,11.20
2022-11-16T03:27:24.470Z,11.30
2022-11-16T03:30:04.531Z,10.48
2022-11-16T03:32:44.862Z,9.20
2022-11-16T03:35:22.186Z,10.85
2022-11-16T03:37:57.588Z,9.18
2022-11-16T03:40:31.992Z,10.85
2022-11-16T03:43:06.526Z,11.60
2022-11-16T03:45:38.654Z,11.82
2022-11-16T03:48:11.907Z,9.95
2022-11-16T03:50:44.066Z,9.38
2022-11-16T03:53:15.873Z,9.20
2022-11-16T03:55:49.935Z,9.80
2022-11-16T03:58:22.005Z,8.35
2022-11-16T04:00:54.268Z,7.50
2022-11-16T04:03:27.396Z,9.98
2022-11-16T04:09:28.400Z,6.80
2022-11-16T04:12:18.685Z,6.50
2022-11-16T04:15:16.745Z,7.40
2022-11-16T04:18:06.992Z,6.22
2022-11-16T04:20:58.705Z,6.90
2022-11-16T04:23:49.594Z,6.03
2022-11-16T04:26:41.400Z,11.13
2022-11-16T04:29:13.913Z,5.78
2022-11-16T04:32:04.589Z,4.93
2022-11-16T04:34:55.205Z,6.40
2022-11-16T04:37:46.878Z,5.43
2022-11-16T04:40:20.297Z,4.07
2022-11-16T04:45:43.646Z,3.92
2022-11-16T04:48:16.969Z,4.90
2022-11-16T04:53:23.974Z,4.88
2022-11-16T04:56:00.633Z,6.43
2022-11-16T04:58:33.445Z,5.88
2022-11-16T05:01:05.553Z,5.82
2022-11-16T05:03:37.399Z,6.70
2022-11-16T05:06:09.194Z,4.65
2022-11-16T05:08:42.312Z,4.38
2022-11-16T05:11:14.101Z,4.75
2022-11-16T05:13:45.879Z,5.78
2022-11-16T05:16:17.705Z,3.65
2022-11-16T05:19:09.442Z,4.57
2022-11-16T05:21:41.233Z,3.58
2022-11-16T05:24:33.144Z,4.47
2022-11-16T05:27:07.387Z,4.82
2022-11-16T05:29:39.771Z,4.15
2022-11-16T05:32:12.835Z,3.67
2022-11-16T05:34:44.743Z,2.83
2022-11-16T05:37:17.436Z,3.60
2022-11-16T05:39:50.688Z,2.75
2022-11-16T05:42:22.489Z,3.42
2022-11-16T05:44:54.314Z,6.20
2022-11-16T05:47:26.166Z,4.70
2022-11-16T05:49:57.956Z,7.53
2022-11-16T05:52:29.743Z,4.90
2022-11-16T05:55:03.015Z,6.30
2022-11-16T05:57:34.786Z,6.97
2022-11-16T06:00:07.924Z,5.63
2022-11-16T06:02:39.817Z,4.60
2022-11-16T06:05:11.703Z,5.35
2022-11-16T06:07:43.585Z,5.32
2022-11-16T06:10:16.869Z,7.60
2022-11-16T06:12:48.642Z,6.78
2022-11-16T06:15:20.409Z,4.32
2022-11-16T06:17:52.171Z,4.13
2022-11-16T06:20:24.007Z,3.88
2022-11-16T06:22:55.792Z,4.03
2022-11-16T06:25:30.802Z,4.72
2022-11-16T06:28:07.477Z,5.85
2022-11-16T06:30:40.620Z,3.35
2022-11-16T06:33:12.400Z,3.83
2022-11-16T06:35:44.674Z,4.20
2022-11-16T06:38:20.183Z,4.32
2022-11-16T06:40:55.048Z,4.95
2022-11-16T06:43:27.082Z,4.55
2022-11-16T06:45:59.024Z,3.80
2022-11-16T06:48:31.197Z,5.60
2022-11-16T06:51:03.309Z,4.20
2022-11-16T06:53:35.276Z,5.90
2022-11-16T06:56:12.219Z,4.07
2022-11-16T06:58:44.011Z,5.47
2022-11-16T07:01:15.869Z,3.05
2022-11-16T07:03:47.662Z,3.50
2022-11-16T07:06:19.540Z,4.47
2022-11-16T07:08:51.341Z,3.67
2022-11-16T07:11:24.495Z,5.90
2022-11-16T07:13:56.344Z,3.97
2022-11-16T07:16:28.842Z,2.90
2022-11-16T07:19:00.776Z,3.23
2022-11-16T07:21:32.771Z,4.07
2022-11-16T07:24:04.852Z,4.53
2022-11-16T07:26:37.981Z,5.40
2022-11-16T07:29:09.783Z,3.78
2022-11-16T07:31:41.680Z,2.58
2022-11-16T07:34:13.518Z,3.13
2022-11-16T07:36:45.299Z,4.53
2022-11-16T07:39:17.157Z,3.33
2022-11-16T07:41:53.065Z,3.83
2022-11-16T07:44:24.907Z,3.35
2022-11-16T07:46:56.674Z,3.72
2022-11-16T07:49:28.513Z,4.88
2022-11-16T07:52:00.323Z,5.72
2022-11-16T07:54:32.320Z,6.93
2022-11-16T07:57:05.546Z,7.05
2022-11-16T07:59:37.381Z,5.78
2022-11-16T08:02:09.899Z,5.13
2022-11-16T08:04:41.786Z,5.03
2022-11-16T08:07:14.422Z,5.72
2022-11-16T08:09:46.515Z,7.07
2022-11-16T08:12:19.805Z,8.55
2022-11-16T08:14:51.790Z,4.28
2022-11-16T08:17:23.619Z,6.50
2022-11-16T08:19:55.453Z,8.50
2022-11-16T08:22:27.275Z,5.68
2022-11-16T08:24:59.096Z,5.70
2022-11-16T08:27:33.270Z,5.88
2022-11-16T08:30:09.841Z,3.92
2022-11-16T08:32:42.430Z,6.45
2022-11-16T08:35:14.367Z,4.75
2022-11-16T08:37:46.580Z,7.60
2022-11-16T08:40:18.404Z,4.55
2022-11-16T08:42:56.956Z,5.47
2022-11-16T08:45:28.950Z,3.55
2022-11-16T08:48:03.923Z,5.00
2022-11-16T08:50:55.375Z,7.18
2022-11-16T08:53:28.106Z,6.10
2022-11-16T08:56:03.568Z,9.43
2022-11-16T08:58:36.753Z,3.40
2022-11-16T09:01:10.091Z,10.82
2022-11-16T09:03:42.250Z,5.97
2022-11-16T09:06:14.515Z,7.47
2022-11-16T09:08:46.645Z,7.60
2022-11-16T09:11:21.969Z,5.30
2022-11-16T09:13:55.761Z,12.32
2022-11-16T09:16:27.977Z,8.23
2022-11-16T09:19:00.884Z,5.95
2022-11-16T09:21:32.712Z,6.72
2022-11-16T09:24:04.971Z,7.18
2022-11-16T09:26:36.771Z,8.68
2022-11-16T09:29:14.679Z,5.38
2022-11-16T09:31:48.964Z,6.45
2022-11-16T09:34:20.908Z,7.72
2022-11-16T09:36:52.737Z,5.55
2022-11-16T09:39:31.044Z,6.47
2022-11-16T09:42:18.793Z,7.72
2022-11-16T09:45:00.347Z,4.18
2022-11-16T09:47:40.886Z,3.30
2022-11-16T09:50:26.676Z,5.82
2022-11-16T09:53:06.154Z,4.93
2022-11-16T09:55:46.792Z,4.00
2022-11-16T09:58:23.891Z,4.05
2022-11-16T10:01:03.456Z,5.65
2022-11-16T10:03:42.759Z,5.90
2022-11-16T10:06:21.630Z,5.30
2022-11-16T10:08:56.767Z,3.88
2022-11-16T10:11:48.800Z,4.45
2022-11-16T10:14:45.159Z,5.55
2022-11-16T10:17:25.341Z,7.53
2022-11-16T10:20:18.358Z,2.50
2022-11-16T10:22:59.501Z,6.50
2022-11-16T10:25:43.264Z,4.38
2022-11-16T10:28:45.618Z,4.75
2022-11-16T10:31:21.202Z,5.25
2022-11-16T10:33:58.924Z,5.38
2022-11-16T10:36:33.835Z,3.03
2022-11-16T10:39:12.966Z,6.45
2022-11-16T10:41:48.786Z,3.47
2022-11-16T10:44:30.094Z,3.45
2022-11-16T10:47:05.953Z,3.05
2022-11-16T10:49:47.923Z,6.13
2022-11-16T10:52:21.751Z,4.78
2022-11-16T10:54:55.001Z,4.63
2022-11-16T10:57:58.756Z,3.55
2022-11-16T11:00:39.678Z,6.50
2022-11-16T11:03:12.016Z,4.53
2022-11-16T11:05:50.016Z,2.47
2022-11-16T11:08:27.601Z,1.38
2022-11-16T11:11:03.224Z,6.50
2022-11-16T11:13:36.948Z,3.70
2022-11-16T11:16:17.220Z,4.03
2022-11-16T11:18:54.286Z,3.35
2022-11-16T11:21:27.432Z,4.45
2022-11-16T11:24:29.428Z,3.72
2022-11-16T11:26:57.107Z,1.67
2022-11-16T11:29:33.161Z,3.90
2022-11-16T11:32:07.607Z,3.97
2022-11-16T11:34:43.582Z,4.50
2022-11-16T11:37:17.645Z,3.13
2022-11-16T11:40:17.406Z,1.92
2022-11-16T11:42:58.028Z,4.07
2022-11-16T11:45:42.152Z,1.85
2022-11-16T11:48:27.905Z,2.65
2022-11-16T11:51:08.854Z,4.25
2022-11-16T11:53:51.938Z,2.15
2022-11-16T11:56:24.842Z,2.72
2022-11-16T11:58:56.866Z,4.22
2022-11-16T12:01:57.407Z,3.97
2022-11-16T12:05:02.626Z,4.22
2022-11-16T12:07:47.893Z,3.88
2022-11-16T12:10:27.567Z,2.60
2022-11-16T12:13:10.737Z,2.13
2022-11-16T12:15:58.929Z,4.35
2022-11-16T12:18:50.840Z,5.93
2022-11-16T12:21:31.823Z,3.03
2022-11-16T12:24:17.947Z,3.70
2022-11-16T12:27:02.162Z,4.97
2022-11-16T12:29:45.078Z,4.55
2022-11-16T12:32:50.140Z,2.92
2022-11-16T12:35:47.812Z,2.53
2022-11-16T12:38:42.158Z,3.55
2022-11-16T12:41:39.830Z,5.82
2022-11-16T12:44:14.122Z,2.83
2022-11-16T12:46:59.083Z,2.35
2022-11-16T12:49:46.925Z,2.58
2022-11-16T12:52:41.310Z,2.58
2022-11-16T12:55:27.134Z,2.25
2022-11-16T12:58:16.721Z,4.43
2022-11-16T13:01:02.735Z,3.85
2022-11-16T13:03:42.788Z,6.07
2022-11-16T13:06:19.704Z,3.50
2022-11-16T13:09:01.680Z,3.80
2022-11-16T13:11:37.985Z,4.95
2022-11-16T13:14:14.032Z,1.73
2022-11-16T13:16:47.331Z,4.22
2022-11-16T13:21:56.055Z,4.85
2022-11-16T13:24:42.265Z,2.20
2022-11-16T13:27:25.043Z,5.15
2022-11-16T13:30:03.650Z,4.78
2022-11-16T13:32:49.363Z,4.03
2022-11-16T13:35:21.458Z,3.42
2022-11-16T13:37:53.534Z,2.22
2022-11-16T13:40:29.310Z,4.97
2022-11-16T13:43:04.875Z,3.45
2022-11-16T13:45:41.088Z,1.88
2022-11-16T13:48:19.218Z,5.47
2022-11-16T13:50:53.865Z,2.33
2022-11-16T13:56:28.646Z,4.10
2022-11-16T13:59:00.855Z,3.92
2022-11-16T14:01:58.662Z,2.45
2022-11-16T14:04:42.805Z,2.03
2022-11-16T14:07:37.197Z,3.90
2022-11-16T14:10:10.454Z,4.85
2022-11-16T14:12:54.010Z,4.85
2022-11-16T14:15:34.484Z,6.95
2022-11-16T14:18:31.777Z,3.47
2022-11-16T14:21:21.817Z,2.15
2022-11-16T14:24:11.293Z,1.20
2022-11-16T14:26:52.536Z,3.10
2022-11-16T14:29:44.127Z,4.63
2022-11-16T14:32:20.823Z,3.45
2022-11-16T14:34:55.278Z,3.67
2022-11-16T14:37:33.591Z,3.30
2022-11-16T14:40:09.046Z,2.25
2022-11-16T14:43:09.908Z,4.22
2022-11-16T14:45:41.098Z,4.70
2022-11-16T14:50:58.724Z,2.45
2022-11-16T14:53:32.088Z,4.15
2022-11-16T14:56:09.664Z,3.83
2022-11-16T14:58:50.889Z,1.33
2022-11-16T15:01:27.241Z,2.17
2022-11-16T15:04:04.373Z,3.70
2022-11-16T15:06:41.559Z,2.80
2022-11-16T15:09:18.207Z,4.75
2022-11-16T15:12:09.293Z,2.10
2022-11-16T15:14:46.400Z,4.32
2022-11-16T15:17:22.246Z,4.05
2022-11-16T15:19:55.866Z,3.13
2022-11-16T15:22:30.078Z,3.00
2022-11-16T15:25:02.135Z,2.65
2022-11-16T15:27:36.537Z,3.38
2022-11-16T15:30:16.968Z,4.93
2022-11-16T15:32:51.917Z,2.42
2022-11-16T15:35:28.617Z,4.30
2022-11-16T15:38:01.919Z,5.07
2022-11-16T15:43:07.083Z,4.18
2022-11-16T15:45:42.036Z,6.22
2022-11-16T15:48:19.880Z,5.50
2022-11-16T15:51:00.171Z,6.18
2022-11-16T15:53:38.637Z,5.00
2022-11-16T15:56:15.112Z,5.13
2022-11-16T15:58:47.534Z,6.00
2022-11-16T16:01:26.070Z,6.73
2022-11-16T16:04:03.971Z,3.90
2022-11-16T16:06:47.428Z,2.05
2022-11-16T16:09:25.592Z,7.40
2022-11-16T16:12:17.064Z,5.38
2022-11-16T16:14:49.998Z,8.15
2022-11-16T16:17:23.841Z,4.70
2022-11-16T16:19:58.609Z,3.45
2022-11-16T16:22:32.668Z,5.03
2022-11-16T16:25:06.570Z,4.78
2022-11-16T16:27:40.015Z,5.97
2022-11-16T16:30:14.715Z,12.27
2022-11-16T16:32:51.701Z,12.05
2022-11-16T16:35:26.307Z,11.23
2022-11-16T16:38:00.713Z,4.90
2022-11-16T16:40:32.580Z,5.90
2022-11-16T16:43:04.421Z,7.57
2022-11-16T16:45:38.768Z,6.05
2022-11-16T16:48:13.900Z,4.72
2022-11-16T16:50:47.088Z,5.07
2022-11-16T16:53:18.970Z,4.45
2022-11-16T16:55:50.983Z,4.65
2022-11-16T16:58:25.541Z,6.07
2022-11-16T17:01:01.252Z,5.50
2022-11-16T17:03:34.411Z,6.40
2022-11-16T17:06:07.871Z,8.60
2022-11-16T17:08:39.782Z,20.30
2022-11-16T17:11:14.830Z,29.67
2022-11-16T17:13:47.038Z,28.10
2022-11-16T17:16:18.974Z,14.85
2022-11-16T17:18:54.940Z,9.25
2022-11-16T17:21:28.123Z,6.25
2022-11-16T17:23:59.938Z,5.20
2022-11-16T17:26:31.803Z,6.72
2022-11-16T17:29:03.795Z,7.40
2022-11-16T17:31:36.292Z,7.95
2022-11-16T17:34:13.215Z,8.07
2022-11-16T17:36:47.150Z,7.07
2022-11-16T17:39:19.303Z,9.48
2022-11-16T17:41:51.581Z,10.13
2022-11-16T17:44:23.444Z,8.88
2022-11-16T17:46:55.263Z,6.90
2022-11-16T17:49:27.163Z,6.65
2022-11-16T17:52:01.648Z,4.32
2022-11-16T17:54:33.549Z,6.15
2022-11-16T17:57:05.452Z,7.38
2022-11-16T17:59:37.255Z,15.85
2022-11-16T18:02:10.634Z,7.25
2022-11-16T18:07:24.122Z,7.13
2022-11-16T18:12:27.733Z,10.07
2022-11-16T18:15:21.710Z,7.82
2022-11-16T18:17:51.377Z,9.38
2022-11-16T18:20:24.436Z,9.20
2022-11-16T18:22:57.761Z,15.13
2022-11-16T18:28:01.485Z,11.63
2022-11-16T18:30:33.339Z,11.80
2022-11-16T18:33:05.158Z,8.73
2022-11-16T18:35:37.008Z,12.75
2022-11-16T18:38:13.318Z,12.15
2022-11-16T18:40:45.171Z,11.68
2022-11-16T18:43:16.996Z,10.57
2022-11-16T18:45:48.819Z,7.03
2022-11-16T18:48:20.628Z,10.23
2022-11-16T18:50:52.455Z,13.90
2022-11-16T18:53:25.805Z,11.55
2022-11-16T19:01:26.338Z,7.30
2022-11-16T19:03:58.293Z,5.57
2022-11-16T19:06:32.079Z,6.53
2022-11-16T19:09:09.477Z,5.05
2022-11-16T19:11:41.340Z,4.43
2022-11-16T19:14:13.376Z,8.13
2022-11-16T19:16:54.093Z,8.95
2022-11-16T19:19:29.870Z,7.43
2022-11-16T19:22:01.709Z,5.70
2022-11-16T19:24:35.040Z,4.75
2022-11-16T19:29:38.594Z,9.30
2022-11-16T19:32:10.410Z,5.97
2022-11-16T19:34:42.197Z,8.13
2022-11-16T19:37:15.087Z,7.75
2022-11-16T19:39:48.280Z,9.88
2022-11-16T19:42:20.130Z,8.77
2022-11-16T19:44:52.016Z,7.18
2022-11-16T19:47:26.196Z,9.68
2022-11-16T19:49:58.212Z,8.00
2022-11-16T19:52:30.196Z,6.50
2022-11-16T19:55:03.613Z,8.40
2022-11-16T20:00:08.571Z,3.90
2022-11-16T20:02:40.526Z,8.38
2022-11-16T20:05:12.319Z,7.55
2022-11-16T20:07:44.693Z,6.38
2022-11-16T20:10:33.261Z,5.47
2022-11-16T20:13:05.522Z,7.10
2022-11-16T20:15:40.082Z,5.85
2022-11-16T20:18:11.994Z,4.47
2022-11-16T20:20:44.365Z,6.00
2022-11-16T20:23:19.755Z,5.28
2022-11-16T20:25:52.861Z,6.95
2022-11-16T20:28:24.701Z,6.43
2022-11-16T20:30:56.822Z,6.03
2022-11-16T20:33:28.603Z,4.97
2022-11-16T20:36:01.784Z,8.02
2022-11-16T20:38:34.131Z,5.63
2022-11-16T20:41:12.483Z,7.35
2022-11-16T20:43:45.839Z,7.05
2022-11-16T20:48:50.930Z,8.43
2022-11-16T20:51:23.761Z,4.70
2022-11-16T20:53:55.760Z,6.00
2022-11-16T20:56:28.963Z,8.48
2022-11-16T20:59:00.930Z,6.57
2022-11-16T21:01:32.802Z,5.43
2022-11-16T21:04:06.112Z,6.72
2022-11-16T21:06:37.911Z,8.85
2022-11-16T21:09:11.246Z,7.93
2022-11-16T21:14:34.775Z,7.55
2022-11-16T21:17:08.884Z,8.48
2022-11-16T21:19:49.883Z,10.15
2022-11-16T21:22:32.828Z,5.68
2022-11-16T21:27:38.235Z,7.13
2022-11-16T21:30:11.335Z,6.22
2022-11-16T21:32:43.248Z,11.95
2022-11-16T21:35:18.239Z,12.38
2022-11-16T21:37:57.819Z,15.23
2022-11-16T21:40:37.149Z,12.02
2022-11-16T21:43:10.328Z,8.90
2022-11-16T21:45:46.239Z,10.38
2022-11-16T21:48:18.293Z,7.80
2022-11-16T21:50:59.724Z,9.85
2022-11-16T21:53:34.875Z,10.15
2022-11-16T21:56:10.659Z,9.02
2022-11-16T21:58:44.303Z,7.38
2022-11-16T22:01:16.544Z,8.57
2022-11-16T22:04:07.637Z,7.38
2022-11-16T22:07:02.168Z,7.88
2022-11-16T22:09:33.995Z,8.10
2022-11-16T22:12:12.027Z,7.35
2022-11-16T22:14:45.173Z,8.30
2022-11-16T22:17:16.992Z,7.18
2022-11-16T22:19:49.081Z,10.85
2022-11-16T22:22:21.428Z,6.10
2022-11-16T22:24:56.430Z,6.25
2022-11-16T22:27:28.341Z,8.60
2022-11-16T22:30:07.900Z,5.95
2022-11-16T22:32:44.819Z,9.85
2022-11-16T22:35:16.690Z,9.43
2022-11-16T22:37:48.502Z,7.25
2022-11-16T22:40:21.459Z,6.10
2022-11-16T22:42:56.711Z,7.68
2022-11-16T22:45:29.959Z,6.45
2022-11-16T22:48:01.786Z,8.82
2022-11-16T22:50:33.685Z,7.90
2022-11-16T22:53:08.816Z,8.25
2022-11-16T22:55:40.932Z,10.25
2022-11-16T22:58:12.719Z,8.13
2022-11-16T23:00:46.210Z,12.45
2022-11-16T23:03:18.080Z,9.45
2022-11-16T23:05:50.129Z,9.38
2022-11-16T23:08:24.801Z,10.10
2022-11-16T23:11:18.950Z,9.10
2022-11-16T23:14:10.746Z,9.52
2022-11-16T23:16:44.504Z,9.70
2022-11-16T23:19:37.138Z,11.57
2022-11-16T23:22:31.362Z,6.55
2022-11-16T23:25:22.520Z,7.07
2022-11-16T23:27:58.994Z,11.00
2022-11-16T23:30:31.389Z,7.13
2022-11-16T23:33:04.893Z,6.97
2022-11-16T23:38:08.623Z,6.50
2022-11-16T23:40:40.745Z,7.60
2022-11-16T23:43:31.341Z,7.22
2022-11-16T23:46:03.174Z,10.70
2022-11-16T23:48:36.398Z,9.25
2022-11-16T23:51:08.224Z,11.68
2022-11-16T23:53:39.999Z,8.55
2022-11-16T23:56:11.870Z,9.63
2022-11-16T23:58:43.750Z,6.63
